sensor_id;sensor_type;location;lat;lon;timestamp;P1;durP1;ratioP1;P2;durP2;ratioP2
25639;SDS011;13497;48.322;16.204;2023-11-19T00:00:10;3.78;;;3.47;;
25639;SDS011;13497;48.322;16.204;2023-11-19T00:02:40;6.35;;;6.03;;
25639;SDS011;13497;48.322;16.204;2023-11-19T00:05:06;3.60;;;3.30;;
25639;SDS011;13497;48.322;16.204;2023-11-19T00:07:36;3.70;;;3.40;;
25639;SDS011;13497;48.322;16.204;2023-11-19T00:10:07;5.20;;;4.85;;
25639;SDS011;13497;48.322;16.204;2023-11-19T00:12:34;4.70;;;4.40;;
25639;SDS011;13497;48.322;16.204;2023-11-19T00:15:01;7.30;;;6.82;;
25639;SDS011;13497;48.322;16.204;2023-11-19T00:17:27;2.70;;;2.45;;
25639;SDS011;13497;48.322;16.204;2023-11-19T00:19:52;3.60;;;3.30;;
25639;SDS011;13497;48.322;16.204;2023-11-19T00:22:18;3.47;;;3.28;;
25639;SDS011;13497;48.322;16.204;2023-11-19T00:24:46;2.85;;;2.65;;
25639;SDS011;13497;48.322;16.204;2023-11-19T00:27:12;3.25;;;3.05;;
25639;SDS011;13497;48.322;16.204;2023-11-19T00:29:37;5.47;;;5.18;;
25639;SDS011;13497;48.322;16.204;2023-11-19T00:32:03;3.35;;;3.13;;
25639;SDS011;13497;48.322;16.204;2023-11-19T00:34:30;2.83;;;2.15;;
25639;SDS011;13497;48.322;16.204;2023-11-19T00:36:56;3.60;;;3.35;;
25639;SDS011;13497;48.322;16.204;2023-11-19T00:39:22;3.92;;;3.63;;
25639;SDS011;13497;48.322;16.204;2023-11-19T00:41:47;4.10;;;3.80;;
25639;SDS011;13497;48.322;16.204;2023-11-19T00:44:13;4.28;;;3.97;;
25639;SDS011;13497;48.322;16.204;2023-11-19T00:46:39;4.90;;;4.60;;
25639;SDS011;13497;48.322;16.204;2023-11-19T00:49:05;2.72;;;2.50;;
25639;SDS011;13497;48.322;16.204;2023-11-19T00:51:31;3.67;;;3.38;;
25639;SDS011;13497;48.322;16.204;2023-11-19T00:53:57;4.32;;;4.03;;
25639;SDS011;13497;48.322;16.204;2023-11-19T00:56:24;5.68;;;3.53;;
25639;SDS011;13497;48.322;16.204;2023-11-19T00:58:49;2.90;;;2.70;;
25639;SDS011;13497;48.322;16.204;2023-11-19T01:01:15;2.50;;;2.30;;
25639;SDS011;13497;48.322;16.204;2023-11-19T01:03:41;3.50;;;3.30;;
25639;SDS011;13497;48.322;16.204;2023-11-19T01:06:06;3.17;;;2.85;;
25639;SDS011;13497;48.322;16.204;2023-11-19T01:08:33;2.83;;;2.63;;
25639;SDS011;13497;48.322;16.204;2023-11-19T01:11:00;4.10;;;3.80;;
25639;SDS011;13497;48.322;16.204;2023-11-19T01:13:27;4.13;;;3.80;;
25639;SDS011;13497;48.322;16.204;2023-11-19T01:15:53;5.15;;;4.75;;
25639;SDS011;13497;48.322;16.204;2023-11-19T01:18:21;9.02;;;8.43;;
25639;SDS011;13497;48.322;16.204;2023-11-19T01:20:47;6.10;;;5.60;;
25639;SDS011;13497;48.322;16.204;2023-11-19T01:23:12;7.78;;;7.15;;
25639;SDS011;13497;48.322;16.204;2023-11-19T01:25:38;5.82;;;5.32;;
25639;SDS011;13497;48.322;16.204;2023-11-19T01:28:04;4.63;;;3.88;;
25639;SDS011;13497;48.322;16.204;2023-11-19T01:30:29;7.47;;;6.95;;
25639;SDS011;13497;48.322;16.204;2023-11-19T01:32:55;9.55;;;8.85;;
25639;SDS011;13497;48.322;16.204;2023-11-19T01:35:21;5.57;;;5.15;;
25639;SDS011;13497;48.322;16.204;2023-11-19T01:37:48;5.07;;;4.55;;
25639;SDS011;13497;48.322;16.204;2023-11-19T01:40:19;12.63;;;11.82;;
25639;SDS011;13497;48.322;16.204;2023-11-19T01:42:46;6.85;;;6.25;;
25639;SDS011;13497;48.322;16.204;2023-11-19T01:45:19;6.07;;;5.47;;
25639;SDS011;13497;48.322;16.204;2023-11-19T01:47:51;5.78;;;4.82;;
25639;SDS011;13497;48.322;16.204;2023-11-19T01:50:17;9.23;;;8.63;;
25639;SDS011;13497;48.322;16.204;2023-11-19T01:55:10;4.50;;;4.07;;
25639;SDS011;13497;48.322;16.204;2023-11-19T01:57:37;4.53;;;3.70;;
25639;SDS011;13497;48.322;16.204;2023-11-19T02:00:06;8.63;;;7.95;;
25639;SDS011;13497;48.322;16.204;2023-11-19T02:02:32;8.75;;;7.85;;
25639;SDS011;13497;48.322;16.204;2023-11-19T02:04:58;5.78;;;5.28;;
25639;SDS011;13497;48.322;16.204;2023-11-19T02:07:23;8.80;;;8.00;;
25639;SDS011;13497;48.322;16.204;2023-11-19T02:09:50;11.20;;;10.27;;
25639;SDS011;13497;48.322;16.204;2023-11-19T02:12:16;31.88;;;28.50;;
25639;SDS011;13497;48.322;16.204;2023-11-19T02:14:41;29.67;;;26.88;;
25639;SDS011;13497;48.322;16.204;2023-11-19T02:17:07;11.13;;;9.85;;
25639;SDS011;13497;48.322;16.204;2023-11-19T02:22:19;6.60;;;6.07;;
25639;SDS011;13497;48.322;16.204;2023-11-19T02:24:45;5.18;;;4.78;;
25639;SDS011;13497;48.322;16.204;2023-11-19T02:27:16;4.72;;;4.35;;
25639;SDS011;13497;48.322;16.204;2023-11-19T02:30:01;4.05;;;3.72;;
25639;SDS011;13497;48.322;16.204;2023-11-19T02:32:31;4.85;;;4.43;;
25639;SDS011;13497;48.322;16.204;2023-11-19T02:34:56;4.95;;;4.55;;
25639;SDS011;13497;48.322;16.204;2023-11-19T02:37:22;5.00;;;4.60;;
25639;SDS011;13497;48.322;16.204;2023-11-19T02:39:48;4.60;;;4.15;;
25639;SDS011;13497;48.322;16.204;2023-11-19T02:42:13;3.92;;;3.63;;
25639;SDS011;13497;48.322;16.204;2023-11-19T02:44:43;5.50;;;5.10;;
25639;SDS011;13497;48.322;16.204;2023-11-19T02:47:09;5.57;;;5.10;;
25639;SDS011;13497;48.322;16.204;2023-11-19T02:49:35;5.85;;;5.35;;
25639;SDS011;13497;48.322;16.204;2023-11-19T02:52:02;4.25;;;3.85;;
25639;SDS011;13497;48.322;16.204;2023-11-19T02:54:30;5.13;;;4.72;;
25639;SDS011;13497;48.322;16.204;2023-11-19T02:57:00;3.13;;;2.85;;
25639;SDS011;13497;48.322;16.204;2023-11-19T02:59:28;3.13;;;2.92;;
25639;SDS011;13497;48.322;16.204;2023-11-19T03:02:03;3.40;;;3.20;;
25639;SDS011;13497;48.322;16.204;2023-11-19T03:04:31;4.25;;;3.95;;
25639;SDS011;13497;48.322;16.204;2023-11-19T03:06:58;3.60;;;3.40;;
25639;SDS011;13497;48.322;16.204;2023-11-19T03:09:23;2.65;;;2.45;;
25639;SDS011;13497;48.322;16.204;2023-11-19T03:11:49;3.28;;;3.08;;
25639;SDS011;13497;48.322;16.204;2023-11-19T03:14:15;3.25;;;3.03;;
25639;SDS011;13497;48.322;16.204;2023-11-19T03:16:44;2.67;;;2.47;;
25639;SDS011;13497;48.322;16.204;2023-11-19T03:19:11;4.72;;;4.18;;
25639;SDS011;13497;48.322;16.204;2023-11-19T03:21:37;2.72;;;2.53;;
25639;SDS011;13497;48.322;16.204;2023-11-19T03:24:03;2.60;;;2.40;;
25639;SDS011;13497;48.322;16.204;2023-11-19T03:26:28;3.50;;;3.25;;
25639;SDS011;13497;48.322;16.204;2023-11-19T03:28:54;4.75;;;4.45;;
25639;SDS011;13497;48.322;16.204;2023-11-19T03:31:22;3.70;;;3.50;;
25639;SDS011;13497;48.322;16.204;2023-11-19T03:33:47;5.43;;;5.07;;
25639;SDS011;13497;48.322;16.204;2023-11-19T03:36:13;4.00;;;3.72;;
25639;SDS011;13497;48.322;16.204;2023-11-19T03:38:39;2.63;;;2.42;;
25639;SDS011;13497;48.322;16.204;2023-11-19T03:41:13;3.70;;;3.45;;
25639;SDS011;13497;48.322;16.204;2023-11-19T03:43:40;5.80;;;5.50;;
25639;SDS011;13497;48.322;16.204;2023-11-19T03:46:16;3.58;;;3.35;;
25639;SDS011;13497;48.322;16.204;2023-11-19T03:48:46;3.88;;;3.67;;
25639;SDS011;13497;48.322;16.204;2023-11-19T03:51:14;4.40;;;4.10;;
25639;SDS011;13497;48.322;16.204;2023-11-19T03:53:47;4.68;;;4.38;;
25639;SDS011;13497;48.322;16.204;2023-11-19T03:56:12;3.65;;;3.42;;
25639;SDS011;13497;48.322;16.204;2023-11-19T03:58:39;2.63;;;2.42;;
25639;SDS011;13497;48.322;16.204;2023-11-19T04:01:05;2.47;;;2.28;;
25639;SDS011;13497;48.322;16.204;2023-11-19T04:03:35;2.55;;;2.30;;
25639;SDS011;13497;48.322;16.204;2023-11-19T04:06:01;2.92;;;2.72;;
25639;SDS011;13497;48.322;16.204;2023-11-19T04:08:27;3.97;;;3.75;;
25639;SDS011;13497;48.322;16.204;2023-11-19T04:10:54;2.60;;;2.40;;
25639;SDS011;13497;48.322;16.204;2023-11-19T04:13:19;3.78;;;3.58;;
25639;SDS011;13497;48.322;16.204;2023-11-19T04:15:45;4.60;;;4.35;;
25639;SDS011;13497;48.322;16.204;2023-11-19T04:18:11;5.97;;;5.65;;
25639;SDS011;13497;48.322;16.204;2023-11-19T04:20:36;4.30;;;4.07;;
25639;SDS011;13497;48.322;16.204;2023-11-19T04:23:02;2.42;;;2.22;;
25639;SDS011;13497;48.322;16.204;2023-11-19T04:25:28;2.72;;;2.53;;
25639;SDS011;13497;48.322;16.204;2023-11-19T04:27:53;2.97;;;2.78;;
25639;SDS011;13497;48.322;16.204;2023-11-19T04:30:19;3.15;;;2.95;;
25639;SDS011;13497;48.322;16.204;2023-11-19T04:32:45;3.25;;;2.95;;
25639;SDS011;13497;48.322;16.204;2023-11-19T04:35:11;2.17;;;1.98;;
25639;SDS011;13497;48.322;16.204;2023-11-19T04:37:36;2.00;;;1.77;;
25639;SDS011;13497;48.322;16.204;2023-11-19T04:40:03;2.88;;;2.65;;
25639;SDS011;13497;48.322;16.204;2023-11-19T04:42:28;2.85;;;2.63;;
25639;SDS011;13497;48.322;16.204;2023-11-19T04:44:54;2.55;;;2.38;;
25639;SDS011;13497;48.322;16.204;2023-11-19T04:47:20;2.72;;;2.53;;
25639;SDS011;13497;48.322;16.204;2023-11-19T04:49:46;3.35;;;3.15;;
25639;SDS011;13497;48.322;16.204;2023-11-19T04:52:13;3.78;;;3.55;;
25639;SDS011;13497;48.322;16.204;2023-11-19T04:54:42;3.63;;;3.40;;
25639;SDS011;13497;48.322;16.204;2023-11-19T04:57:08;3.03;;;2.72;;
25639;SDS011;13497;48.322;16.204;2023-11-19T04:59:37;4.25;;;3.95;;
25639;SDS011;13497;48.322;16.204;2023-11-19T05:02:03;4.75;;;4.47;;
25639;SDS011;13497;48.322;16.204;2023-11-19T05:04:29;7.50;;;7.10;;
25639;SDS011;13497;48.322;16.204;2023-11-19T05:06:55;2.70;;;2.50;;
25639;SDS011;13497;48.322;16.204;2023-11-19T05:09:21;2.65;;;2.45;;
25639;SDS011;13497;48.322;16.204;2023-11-19T05:11:47;2.38;;;2.17;;
25639;SDS011;13497;48.322;16.204;2023-11-19T05:14:13;3.05;;;2.85;;
25639;SDS011;13497;48.322;16.204;2023-11-19T05:16:39;4.47;;;4.18;;
25639;SDS011;13497;48.322;16.204;2023-11-19T05:19:05;5.78;;;5.45;;
25639;SDS011;13497;48.322;16.204;2023-11-19T05:21:31;7.00;;;6.57;;
25639;SDS011;13497;48.322;16.204;2023-11-19T05:23:57;5.60;;;5.30;;
25639;SDS011;13497;48.322;16.204;2023-11-19T05:26:23;6.72;;;6.22;;
25639;SDS011;13497;48.322;16.204;2023-11-19T05:28:49;3.63;;;3.42;;
25639;SDS011;13497;48.322;16.204;2023-11-19T05:31:15;3.67;;;3.38;;
25639;SDS011;13497;48.322;16.204;2023-11-19T05:36:08;4.07;;;3.80;;
25639;SDS011;13497;48.322;16.204;2023-11-19T05:38:35;2.95;;;2.72;;
25639;SDS011;13497;48.322;16.204;2023-11-19T05:41:02;3.58;;;3.30;;
25639;SDS011;13497;48.322;16.204;2023-11-19T05:43:28;5.70;;;4.60;;
25639;SDS011;13497;48.322;16.204;2023-11-19T05:45:53;4.32;;;4.05;;
25639;SDS011;13497;48.322;16.204;2023-11-19T05:48:19;3.75;;;3.47;;
25639;SDS011;13497;48.322;16.204;2023-11-19T05:50:45;5.13;;;4.82;;
25639;SDS011;13497;48.322;16.204;2023-11-19T05:53:11;3.65;;;3.35;;
25639;SDS011;13497;48.322;16.204;2023-11-19T05:55:39;3.47;;;3.25;;
25639;SDS011;13497;48.322;16.204;2023-11-19T05:58:11;2.75;;;2.55;;
25639;SDS011;13497;48.322;16.204;2023-11-19T06:00:37;2.58;;;2.38;;
25639;SDS011;13497;48.322;16.204;2023-11-19T06:03:05;5.50;;;5.20;;
25639;SDS011;13497;48.322;16.204;2023-11-19T06:07:58;2.42;;;2.22;;
25639;SDS011;13497;48.322;16.204;2023-11-19T06:10:23;3.60;;;3.40;;
25639;SDS011;13497;48.322;16.204;2023-11-19T06:12:59;4.25;;;3.95;;
25639;SDS011;13497;48.322;16.204;2023-11-19T06:15:28;2.35;;;2.13;;
25639;SDS011;13497;48.322;16.204;2023-11-19T06:17:54;2.45;;;2.25;;
25639;SDS011;13497;48.322;16.204;2023-11-19T06:20:26;2.90;;;2.70;;
25639;SDS011;13497;48.322;16.204;2023-11-19T06:22:54;2.35;;;2.15;;
25639;SDS011;13497;48.322;16.204;2023-11-19T06:25:19;2.80;;;2.58;;
25639;SDS011;13497;48.322;16.204;2023-11-19T06:27:45;3.25;;;2.95;;
25639;SDS011;13497;48.322;16.204;2023-11-19T06:30:11;4.40;;;4.10;;
25639;SDS011;13497;48.322;16.204;2023-11-19T06:32:37;4.82;;;4.50;;
25639;SDS011;13497;48.322;16.204;2023-11-19T06:35:03;3.40;;;3.13;;
25639;SDS011;13497;48.322;16.204;2023-11-19T06:37:32;2.90;;;2.67;;
25639;SDS011;13497;48.322;16.204;2023-11-19T06:39:58;3.72;;;2.58;;
25639;SDS011;13497;48.322;16.204;2023-11-19T06:42:24;6.28;;;5.93;;
25639;SDS011;13497;48.322;16.204;2023-11-19T06:44:50;4.70;;;4.40;;
25639;SDS011;13497;48.322;16.204;2023-11-19T06:47:16;3.03;;;2.83;;
25639;SDS011;13497;48.322;16.204;2023-11-19T06:49:45;3.97;;;3.67;;
25639;SDS011;13497;48.322;16.204;2023-11-19T06:52:11;2.88;;;2.58;;
25639;SDS011;13497;48.322;16.204;2023-11-19T06:54:38;2.80;;;2.55;;
25639;SDS011;13497;48.322;16.204;2023-11-19T06:57:04;5.95;;;5.55;;
25639;SDS011;13497;48.322;16.204;2023-11-19T06:59:30;3.42;;;3.13;;
25639;SDS011;13497;48.322;16.204;2023-11-19T07:01:56;5.30;;;4.95;;
25639;SDS011;13497;48.322;16.204;2023-11-19T07:04:22;3.58;;;3.28;;
25639;SDS011;13497;48.322;16.204;2023-11-19T07:06:48;4.20;;;3.90;;
25639;SDS011;13497;48.322;16.204;2023-11-19T07:09:14;2.95;;;2.72;;
25639;SDS011;13497;48.322;16.204;2023-11-19T07:11:40;6.00;;;5.60;;
25639;SDS011;13497;48.322;16.204;2023-11-19T07:14:07;3.85;;;3.55;;
25639;SDS011;13497;48.322;16.204;2023-11-19T07:16:33;6.15;;;5.75;;
25639;SDS011;13497;48.322;16.204;2023-11-19T07:19:02;3.70;;;3.40;;
25639;SDS011;13497;48.322;16.204;2023-11-19T07:21:28;3.90;;;3.60;;
25639;SDS011;13497;48.322;16.204;2023-11-19T07:23:55;3.35;;;3.05;;
25639;SDS011;13497;48.322;16.204;2023-11-19T07:26:21;5.35;;;4.85;;
25639;SDS011;13497;48.322;16.204;2023-11-19T07:28:47;4.55;;;4.22;;
25639;SDS011;13497;48.322;16.204;2023-11-19T07:31:13;5.22;;;4.80;;
25639;SDS011;13497;48.322;16.204;2023-11-19T07:33:39;6.38;;;5.78;;
25639;SDS011;13497;48.322;16.204;2023-11-19T07:36:07;5.82;;;5.43;;
25639;SDS011;13497;48.322;16.204;2023-11-19T07:38:34;5.25;;;4.90;;
25639;SDS011;13497;48.322;16.204;2023-11-19T07:41:00;4.53;;;4.25;;
25639;SDS011;13497;48.322;16.204;2023-11-19T07:43:26;4.30;;;4.00;;
25639;SDS011;13497;48.322;16.204;2023-11-19T07:45:51;3.30;;;3.00;;
25639;SDS011;13497;48.322;16.204;2023-11-19T07:48:17;2.60;;;2.40;;
25639;SDS011;13497;48.322;16.204;2023-11-19T07:50:49;2.58;;;2.33;;
25639;SDS011;13497;48.322;16.204;2023-11-19T07:53:17;4.28;;;3.97;;
25639;SDS011;13497;48.322;16.204;2023-11-19T07:55:43;3.17;;;2.95;;
25639;SDS011;13497;48.322;16.204;2023-11-19T07:58:10;4.38;;;4.05;;
25639;SDS011;13497;48.322;16.204;2023-11-19T08:00:36;3.53;;;3.30;;
25639;SDS011;13497;48.322;16.204;2023-11-19T08:03:02;2.83;;;2.63;;
25639;SDS011;13497;48.322;16.204;2023-11-19T08:05:31;7.90;;;7.40;;
25639;SDS011;13497;48.322;16.204;2023-11-19T08:07:56;3.63;;;3.33;;
25639;SDS011;13497;48.322;16.204;2023-11-19T08:10:23;2.92;;;2.70;;
25639;SDS011;13497;48.322;16.204;2023-11-19T08:12:49;5.07;;;4.68;;
25639;SDS011;13497;48.322;16.204;2023-11-19T08:15:14;2.92;;;2.72;;
25639;SDS011;13497;48.322;16.204;2023-11-19T08:17:41;4.05;;;3.75;;
25639;SDS011;13497;48.322;16.204;2023-11-19T08:20:08;4.25;;;3.92;;
25639;SDS011;13497;48.322;16.204;2023-11-19T08:22:36;3.53;;;3.33;;
25639;SDS011;13497;48.322;16.204;2023-11-19T08:25:03;4.18;;;3.38;;
25639;SDS011;13497;48.322;16.204;2023-11-19T08:27:32;2.97;;;2.60;;
25639;SDS011;13497;48.322;16.204;2023-11-19T08:29:58;4.00;;;3.70;;
25639;SDS011;13497;48.322;16.204;2023-11-19T08:32:25;4.55;;;4.25;;
25639;SDS011;13497;48.322;16.204;2023-11-19T08:34:51;5.35;;;5.03;;
25639;SDS011;13497;48.322;16.204;2023-11-19T08:37:17;6.10;;;5.70;;
25639;SDS011;13497;48.322;16.204;2023-11-19T08:39:50;3.22;;;2.97;;
25639;SDS011;13497;48.322;16.204;2023-11-19T08:42:16;3.47;;;3.25;;
25639;SDS011;13497;48.322;16.204;2023-11-19T08:44:42;4.53;;;4.18;;
25639;SDS011;13497;48.322;16.204;2023-11-19T08:47:12;3.35;;;3.13;;
25639;SDS011;13497;48.322;16.204;2023-11-19T08:49:39;5.03;;;3.72;;
25639;SDS011;13497;48.322;16.204;2023-11-19T08:52:05;4.25;;;3.85;;
25639;SDS011;13497;48.322;16.204;2023-11-19T08:54:34;5.13;;;4.80;;
25639;SDS011;13497;48.322;16.204;2023-11-19T08:56:59;4.45;;;4.03;;
25639;SDS011;13497;48.322;16.204;2023-11-19T08:59:25;4.95;;;4.65;;
25639;SDS011;13497;48.322;16.204;2023-11-19T09:01:51;3.83;;;3.50;;
25639;SDS011;13497;48.322;16.204;2023-11-19T09:04:16;5.38;;;5.03;;
25639;SDS011;13497;48.322;16.204;2023-11-19T09:06:42;3.53;;;3.22;;
25639;SDS011;13497;48.322;16.204;2023-11-19T09:09:08;3.67;;;3.38;;
25639;SDS011;13497;48.322;16.204;2023-11-19T09:11:34;4.57;;;4.28;;
25639;SDS011;13497;48.322;16.204;2023-11-19T09:14:00;4.30;;;3.97;;
25639;SDS011;13497;48.322;16.204;2023-11-19T09:16:26;5.63;;;5.10;;
25639;SDS011;13497;48.322;16.204;2023-11-19T09:18:51;8.02;;;6.35;;
25639;SDS011;13497;48.322;16.204;2023-11-19T09:21:17;6.78;;;5.10;;
25639;SDS011;13497;48.322;16.204;2023-11-19T09:23:42;5.43;;;4.90;;
25639;SDS011;13497;48.322;16.204;2023-11-19T09:26:08;4.32;;;4.03;;
25639;SDS011;13497;48.322;16.204;2023-11-19T09:28:37;3.03;;;2.78;;
25639;SDS011;13497;48.322;16.204;2023-11-19T09:31:02;3.83;;;3.53;;
25639;SDS011;13497;48.322;16.204;2023-11-19T09:33:29;3.00;;;2.72;;
25639;SDS011;13497;48.322;16.204;2023-11-19T09:35:55;3.58;;;3.28;;
25639;SDS011;13497;48.322;16.204;2023-11-19T09:38:21;4.82;;;4.53;;
25639;SDS011;13497;48.322;16.204;2023-11-19T09:40:47;4.72;;;4.43;;
25639;SDS011;13497;48.322;16.204;2023-11-19T09:43:13;4.95;;;4.63;;
25639;SDS011;13497;48.322;16.204;2023-11-19T09:45:49;2.72;;;2.53;;
25639;SDS011;13497;48.322;16.204;2023-11-19T09:48:19;4.80;;;4.50;;
25639;SDS011;13497;48.322;16.204;2023-11-19T09:50:48;2.47;;;2.28;;
25639;SDS011;13497;48.322;16.204;2023-11-19T09:53:15;4.22;;;3.92;;
25639;SDS011;13497;48.322;16.204;2023-11-19T09:55:41;4.22;;;3.92;;
25639;SDS011;13497;48.322;16.204;2023-11-19T09:58:07;2.90;;;2.67;;
25639;SDS011;13497;48.322;16.204;2023-11-19T10:05:26;2.05;;;1.73;;
25639;SDS011;13497;48.322;16.204;2023-11-19T10:07:54;3.92;;;3.70;;
25639;SDS011;13497;48.322;16.204;2023-11-19T10:10:20;4.15;;;3.88;;
25639;SDS011;13497;48.322;16.204;2023-11-19T10:12:46;7.10;;;6.70;;
25639;SDS011;13497;48.322;16.204;2023-11-19T10:15:22;3.45;;;3.15;;
25639;SDS011;13497;48.322;16.204;2023-11-19T10:17:50;3.85;;;3.60;;
25639;SDS011;13497;48.322;16.204;2023-11-19T10:20:16;4.15;;;3.85;;
25639;SDS011;13497;48.322;16.204;2023-11-19T10:22:42;2.72;;;2.53;;
25639;SDS011;13497;48.322;16.204;2023-11-19T10:25:27;4.22;;;3.92;;
25639;SDS011;13497;48.322;16.204;2023-11-19T10:27:54;4.63;;;4.32;;
25639;SDS011;13497;48.322;16.204;2023-11-19T10:30:21;4.20;;;3.88;;
25639;SDS011;13497;48.322;16.204;2023-11-19T10:33:03;3.25;;;3.00;;
25639;SDS011;13497;48.322;16.204;2023-11-19T10:35:31;3.50;;;3.25;;
25639;SDS011;13497;48.322;16.204;2023-11-19T10:38:03;3.58;;;3.28;;
25639;SDS011;13497;48.322;16.204;2023-11-19T10:45:32;2.35;;;2.15;;
25639;SDS011;13497;48.322;16.204;2023-11-19T10:47:59;5.05;;;4.70;;
25639;SDS011;13497;48.322;16.204;2023-11-19T10:52:56;4.50;;;4.20;;
25639;SDS011;13497;48.322;16.204;2023-11-19T10:55:28;2.95;;;2.75;;
25639;SDS011;13497;48.322;16.204;2023-11-19T10:58:00;3.15;;;2.72;;
25639;SDS011;13497;48.322;16.204;2023-11-19T11:01:20;3.65;;;3.42;;
25639;SDS011;13497;48.322;16.204;2023-11-19T11:03:24;1.95;;;1.85;;
25639;SDS011;13497;48.322;16.204;2023-11-19T11:05:51;4.88;;;4.57;;
25639;SDS011;13497;48.322;16.204;2023-11-19T11:08:18;12.20;;;11.00;;
25639;SDS011;13497;48.322;16.204;2023-11-19T11:10:49;8.93;;;8.02;;
25639;SDS011;13497;48.322;16.204;2023-11-19T11:13:18;4.95;;;3.88;;
25639;SDS011;13497;48.322;16.204;2023-11-19T11:15:44;2.78;;;2.58;;
25639;SDS011;13497;48.322;16.204;2023-11-19T11:18:12;2.85;;;2.63;;
25639;SDS011;13497;48.322;16.204;2023-11-19T11:20:38;3.55;;;3.00;;
25639;SDS011;13497;48.322;16.204;2023-11-19T11:28:39;3.50;;;3.20;;
25639;SDS011;13497;48.322;16.204;2023-11-19T11:36:42;5.55;;;5.20;;
25639;SDS011;13497;48.322;16.204;2023-11-19T11:39:16;2.45;;;2.25;;
25639;SDS011;13497;48.322;16.204;2023-11-19T11:41:42;3.15;;;2.78;;
25639;SDS011;13497;48.322;16.204;2023-11-19T11:44:08;6.18;;;5.78;;
25639;SDS011;13497;48.322;16.204;2023-11-19T11:49:03;4.35;;;3.75;;
25639;SDS011;13497;48.322;16.204;2023-11-19T11:54:25;2.65;;;2.35;;
25639;SDS011;13497;48.322;16.204;2023-11-19T11:57:09;3.25;;;2.08;;
25639;SDS011;13497;48.322;16.204;2023-11-19T11:59:37;5.55;;;5.15;;
25639;SDS011;13497;48.322;16.204;2023-11-19T12:02:03;3.28;;;2.97;;
25639;SDS011;13497;48.322;16.204;2023-11-19T12:04:29;6.50;;;5.78;;
25639;SDS011;13497;48.322;16.204;2023-11-19T12:07:03;4.03;;;3.15;;
25639;SDS011;13497;48.322;16.204;2023-11-19T12:09:33;2.67;;;2.25;;
25639;SDS011;13497;48.322;16.204;2023-11-19T12:20:02;3.33;;;3.03;;
25639;SDS011;13497;48.322;16.204;2023-11-19T12:22:31;10.50;;;9.90;;
25639;SDS011;13497;48.322;16.204;2023-11-19T12:24:57;5.85;;;5.45;;
25639;SDS011;13497;48.322;16.204;2023-11-19T12:27:23;4.70;;;4.38;;
25639;SDS011;13497;48.322;16.204;2023-11-19T12:29:49;3.53;;;3.22;;
25639;SDS011;13497;48.322;16.204;2023-11-19T12:32:15;2.90;;;2.67;;
25639;SDS011;13497;48.322;16.204;2023-11-19T12:34:41;3.80;;;3.50;;
25639;SDS011;13497;48.322;16.204;2023-11-19T12:37:07;4.88;;;4.47;;
25639;SDS011;13497;48.322;16.204;2023-11-19T12:39:34;4.10;;;3.70;;
25639;SDS011;13497;48.322;16.204;2023-11-19T12:42:00;7.13;;;6.63;;
25639;SDS011;13497;48.322;16.204;2023-11-19T12:44:26;5.15;;;4.75;;
25639;SDS011;13497;48.322;16.204;2023-11-19T12:46:59;4.40;;;4.00;;
25639;SDS011;13497;48.322;16.204;2023-11-19T12:49:29;5.10;;;4.70;;
25639;SDS011;13497;48.322;16.204;2023-11-19T12:51:54;4.22;;;3.80;;
25639;SDS011;13497;48.322;16.204;2023-11-19T12:54:31;5.63;;;5.13;;
25639;SDS011;13497;48.322;16.204;2023-11-19T12:56:57;6.45;;;3.97;;
25639;SDS011;13497;48.322;16.204;2023-11-19T12:59:23;3.85;;;3.33;;
25639;SDS011;13497;48.322;16.204;2023-11-19T13:01:58;4.47;;;4.07;;
25639;SDS011;13497;48.322;16.204;2023-11-19T13:04:28;3.65;;;3.00;;
25639;SDS011;13497;48.322;16.204;2023-11-19T13:07:00;4.40;;;4.00;;
25639;SDS011;13497;48.322;16.204;2023-11-19T13:09:30;3.65;;;3.33;;
25639;SDS011;13497;48.322;16.204;2023-11-19T13:11:55;5.63;;;5.20;;
25639;SDS011;13497;48.322;16.204;2023-11-19T13:14:22;4.07;;;3.70;;
25639;SDS011;13497;48.322;16.204;2023-11-19T13:16:48;3.72;;;3.42;;
25639;SDS011;13497;48.322;16.204;2023-11-19T13:19:14;2.95;;;2.60;;
25639;SDS011;13497;48.322;16.204;2023-11-19T13:21:44;3.92;;;3.63;;
25639;SDS011;13497;48.322;16.204;2023-11-19T13:24:12;4.78;;;4.38;;
25639;SDS011;13497;48.322;16.204;2023-11-19T13:26:38;4.47;;;4.18;;
25639;SDS011;13497;48.322;16.204;2023-11-19T13:29:04;4.43;;;4.13;;
25639;SDS011;13497;48.322;16.204;2023-11-19T13:31:30;3.17;;;2.85;;
25639;SDS011;13497;48.322;16.204;2023-11-19T13:33:56;3.80;;;3.50;;
25639;SDS011;13497;48.322;16.204;2023-11-19T13:36:23;4.85;;;4.45;;
25639;SDS011;13497;48.322;16.204;2023-11-19T13:38:49;6.05;;;5.65;;
25639;SDS011;13497;48.322;16.204;2023-11-19T13:41:15;7.68;;;7.05;;
25639;SDS011;13497;48.322;16.204;2023-11-19T13:43:40;3.75;;;3.42;;
25639;SDS011;13497;48.322;16.204;2023-11-19T13:46:06;5.80;;;5.40;;
25639;SDS011;13497;48.322;16.204;2023-11-19T13:48:35;5.03;;;4.63;;
25639;SDS011;13497;48.322;16.204;2023-11-19T13:51:00;5.78;;;5.38;;
25639;SDS011;13497;48.322;16.204;2023-11-19T13:53:26;3.80;;;3.50;;
25639;SDS011;13497;48.322;16.204;2023-11-19T13:55:51;2.63;;;2.42;;
25639;SDS011;13497;48.322;16.204;2023-11-19T13:58:18;2.65;;;2.13;;
25639;SDS011;13497;48.322;16.204;2023-11-19T14:00:43;3.00;;;2.58;;
25639;SDS011;13497;48.322;16.204;2023-11-19T14:03:09;5.05;;;4.68;;
25639;SDS011;13497;48.322;16.204;2023-11-19T14:05:38;2.53;;;2.13;;
25639;SDS011;13497;48.322;16.204;2023-11-19T14:08:06;1.73;;;1.48;;
25639;SDS011;13497;48.322;16.204;2023-11-19T14:10:38;2.80;;;2.60;;
25639;SDS011;13497;48.322;16.204;2023-11-19T14:13:05;2.20;;;1.80;;
25639;SDS011;13497;48.322;16.204;2023-11-19T14:15:34;3.97;;;3.75;;
25639;SDS011;13497;48.322;16.204;2023-11-19T14:22:52;3.03;;;2.80;;
25639;SDS011;13497;48.322;16.204;2023-11-19T14:25:18;3.47;;;3.08;;
25639;SDS011;13497;48.322;16.204;2023-11-19T14:27:44;4.80;;;4.40;;
25639;SDS011;13497;48.322;16.204;2023-11-19T14:30:11;4.25;;;3.03;;
25639;SDS011;13497;48.322;16.204;2023-11-19T14:32:38;3.90;;;3.58;;
25639;SDS011;13497;48.322;16.204;2023-11-19T14:35:06;2.85;;;2.55;;
25639;SDS011;13497;48.322;16.204;2023-11-19T14:37:32;3.80;;;3.50;;
25639;SDS011;13497;48.322;16.204;2023-11-19T14:39:58;4.35;;;4.05;;
25639;SDS011;13497;48.322;16.204;2023-11-19T14:42:24;5.15;;;4.80;;
25639;SDS011;13497;48.322;16.204;2023-11-19T14:44:53;7.65;;;7.15;;
25639;SDS011;13497;48.322;16.204;2023-11-19T14:47:20;4.13;;;3.65;;
25639;SDS011;13497;48.322;16.204;2023-11-19T14:49:47;5.13;;;4.70;;
25639;SDS011;13497;48.322;16.204;2023-11-19T14:52:13;5.53;;;5.05;;
25639;SDS011;13497;48.322;16.204;2023-11-19T14:54:39;4.63;;;4.20;;
25639;SDS011;13497;48.322;16.204;2023-11-19T14:57:05;4.07;;;3.53;;
25639;SDS011;13497;48.322;16.204;2023-11-19T14:59:33;4.78;;;4.38;;
25639;SDS011;13497;48.322;16.204;2023-11-19T15:01:59;5.68;;;5.18;;
25639;SDS011;13497;48.322;16.204;2023-11-19T15:04:25;4.72;;;4.30;;
25639;SDS011;13497;48.322;16.204;2023-11-19T15:06:52;5.57;;;5.07;;
25639;SDS011;13497;48.322;16.204;2023-11-19T15:09:17;4.93;;;4.53;;
25639;SDS011;13497;48.322;16.204;2023-11-19T15:11:46;7.40;;;6.90;;
25639;SDS011;13497;48.322;16.204;2023-11-19T15:14:15;4.95;;;4.53;;
25639;SDS011;13497;48.322;16.204;2023-11-19T15:16:44;5.93;;;5.40;;
25639;SDS011;13497;48.322;16.204;2023-11-19T15:19:10;6.18;;;5.65;;
25639;SDS011;13497;48.322;16.204;2023-11-19T15:21:40;5.78;;;5.28;;
25639;SDS011;13497;48.322;16.204;2023-11-19T15:24:07;4.85;;;4.45;;